createdAt,value
2018-07-16T00:00:43.113Z,97651.66
2018-07-16T00:03:12.367Z,97650.73
2018-07-16T00:05:41.487Z,97650.83
2018-07-16T00:08:10.395Z,97650.41
2018-07-16T00:10:39.242Z,97652.01
2018-07-16T00:13:08.073Z,97654.13
2018-07-16T00:15:37.020Z,97652.23
2018-07-16T00:18:06.024Z,97652.30
2018-07-16T00:20:34.829Z,97646.45
2018-07-16T00:23:03.976Z,97650.03
2018-07-16T00:25:32.834Z,97652.23
2018-07-16T00:28:02.011Z,97654.06
2018-07-16T00:30:31.258Z,97649.55
2018-07-16T00:33:00.410Z,97653.48
2018-07-16T00:35:29.657Z,97654.48
2018-07-16T00:37:58.906Z,97657.81
2018-07-16T00:40:27.988Z,97654.08
2018-07-16T00:42:57.148Z,97658.15
2018-07-16T00:45:25.870Z,97656.74
2018-07-16T00:47:54.886Z,97648.15
2018-07-16T00:50:24.010Z,97647.63
2018-07-16T00:52:53.224Z,97652.73
2018-07-16T00:55:22.398Z,97647.70
2018-07-16T00:57:51.506Z,97654.85
2018-07-16T01:00:20.794Z,97652.80
2018-07-16T01:02:49.660Z,97651.23
2018-07-16T01:05:18.920Z,97654.56
2018-07-16T01:07:48.033Z,97656.39
2018-07-16T01:10:17.354Z,97659.28
2018-07-16T01:12:46.267Z,97658.00
2018-07-16T01:15:15.367Z,97659.86
2018-07-16T01:17:44.510Z,97660.83
2018-07-16T01:20:13.362Z,97657.02
2018-07-16T01:22:42.382Z,97659.08
2018-07-16T01:25:11.179Z,97663.08
2018-07-16T01:27:40.178Z,97660.97
2018-07-16T01:30:09.499Z,97665.13
2018-07-16T01:32:38.618Z,97660.26
2018-07-16T01:35:07.858Z,97659.14
2018-07-16T01:37:37.608Z,97655.13
2018-07-16T01:40:06.603Z,97659.55
2018-07-16T01:42:35.638Z,97658.20
2018-07-16T01:45:04.918Z,97661.99
2018-07-16T01:47:34.075Z,97660.26
2018-07-16T01:50:03.088Z,97661.02
2018-07-16T01:52:32.122Z,97657.86
2018-07-16T01:55:01.215Z,97661.56
2018-07-16T01:57:30.218Z,97663.30
2018-07-16T01:59:59.362Z,97665.26
2018-07-16T02:02:28.408Z,97660.18
2018-07-16T02:04:57.195Z,97664.83
2018-07-16T02:07:26.018Z,97663.63
2018-07-16T02:09:55.189Z,97666.45
2018-07-16T02:12:24.254Z,97667.89
2018-07-16T02:14:53.411Z,97666.21
2018-07-16T02:17:22.572Z,97663.38
2018-07-16T02:19:51.759Z,97664.14
2018-07-16T02:22:21.143Z,97672.66
2018-07-16T02:24:50.249Z,97670.84
2018-07-16T02:27:19.496Z,97676.33
2018-07-16T02:29:48.501Z,97676.09
2018-07-16T02:32:17.623Z,97681.45
2018-07-16T02:34:46.802Z,97672.94
2018-07-16T02:37:16.047Z,97679.36
2018-07-16T02:39:45.379Z,97678.45
2018-07-16T02:42:14.445Z,97680.16
2018-07-16T02:44:43.256Z,97676.48
2018-07-16T02:47:12.672Z,97678.94
2018-07-16T02:49:41.537Z,97674.34
2018-07-16T02:52:10.851Z,97678.36
2018-07-16T02:54:39.950Z,97681.69
2018-07-16T02:57:09.218Z,97687.73
2018-07-16T02:59:38.034Z,97675.87
2018-07-16T03:02:07.234Z,97682.52
2018-07-16T03:04:35.953Z,97682.00
2018-07-16T03:07:05.005Z,97686.73
2018-07-16T03:09:34.060Z,97688.45
2018-07-16T03:12:03.302Z,97691.04
2018-07-16T03:14:32.051Z,97689.28
2018-07-16T03:17:01.281Z,97680.80
2018-07-16T03:19:30.535Z,97693.80
2018-07-16T03:21:59.412Z,97693.64
2018-07-16T03:24:28.735Z,97692.79
2018-07-16T03:26:58.177Z,97694.27
2018-07-16T03:29:27.364Z,97686.52
2018-07-16T03:31:56.616Z,97685.97
2018-07-16T03:34:25.429Z,97686.45
2018-07-16T03:36:54.563Z,97689.98
2018-07-16T03:39:23.429Z,97688.30
2018-07-16T03:41:52.243Z,97684.77
2018-07-16T03:44:21.366Z,97684.23
2018-07-16T03:46:50.654Z,97687.94
2018-07-16T03:49:20.011Z,97697.89
2018-07-16T03:51:49.270Z,97696.20
2018-07-16T03:54:18.220Z,97690.44
2018-07-16T03:56:47.071Z,97691.47
2018-07-16T03:59:16.142Z,97697.55
2018-07-16T04:01:45.271Z,97691.13
2018-07-16T04:04:14.315Z,97697.37
2018-07-16T04:06:43.521Z,97693.42
2018-07-16T04:09:12.431Z,97689.78
2018-07-16T04:11:41.476Z,97692.26
2018-07-16T04:14:10.662Z,97691.50
2018-07-16T04:16:39.802Z,97690.03
2018-07-16T04:19:09.048Z,97682.99
2018-07-16T04:21:38.318Z,97682.00
2018-07-16T04:24:07.146Z,97679.08
2018-07-16T04:26:36.130Z,97682.99
2018-07-16T04:29:05.202Z,97682.38
2018-07-16T04:31:34.264Z,97679.33
2018-07-16T04:34:03.542Z,97683.44
2018-07-16T04:36:32.543Z,97690.92
2018-07-16T04:39:01.854Z,97687.28
2018-07-16T04:41:30.883Z,97696.75
2018-07-16T04:43:59.928Z,97694.90
2018-07-16T04:46:29.068Z,97697.54
2018-07-16T04:48:58.162Z,97693.52
2018-07-16T04:51:27.269Z,97694.00
2018-07-16T04:56:34.115Z,97689.35
2018-07-16T04:59:03.297Z,97693.02
2018-07-16T05:01:32.513Z,97692.92
2018-07-16T05:04:01.660Z,97694.08
2018-07-16T05:06:30.704Z,97690.06
2018-07-16T05:08:59.769Z,97693.80
2018-07-16T05:11:28.891Z,97679.17
2018-07-16T05:13:57.795Z,97674.97
2018-07-16T05:16:27.011Z,97674.16
2018-07-16T05:18:56.044Z,97671.67
2018-07-16T05:21:25.141Z,97675.12
2018-07-16T05:23:54.443Z,97673.24
2018-07-16T05:26:23.798Z,97681.72
2018-07-16T05:28:52.888Z,97679.18
2018-07-16T05:31:21.653Z,97682.63
2018-07-16T05:33:50.957Z,97676.27
2018-07-16T05:36:20.076Z,97675.98
2018-07-16T05:38:49.269Z,97685.17
2018-07-16T05:41:18.409Z,97686.48
2018-07-16T05:43:47.956Z,97687.34
2018-07-16T05:46:17.017Z,97689.00
2018-07-16T05:48:45.928Z,97693.30
2018-07-16T05:51:14.769Z,97688.94
2018-07-16T05:53:43.588Z,97686.83
2018-07-16T05:56:12.718Z,97687.95
2018-07-16T05:58:41.731Z,97685.62
2018-07-16T06:01:10.854Z,97690.97
2018-07-16T06:03:39.746Z,97688.09
2018-07-16T06:06:08.734Z,97683.70
2018-07-16T06:08:38.112Z,97686.03
2018-07-16T06:11:07.255Z,97681.72
2018-07-16T06:13:36.168Z,97681.73
2018-07-16T06:16:05.415Z,97679.81
2018-07-16T06:18:34.211Z,97693.63
2018-07-16T06:21:03.551Z,97680.25
2018-07-16T06:23:32.699Z,97690.22
2018-07-16T06:26:01.630Z,97687.09
2018-07-16T06:28:30.677Z,97683.25
2018-07-16T06:30:59.476Z,97678.44
2018-07-16T06:33:28.596Z,97681.80
2018-07-16T06:35:57.526Z,97689.55
2018-07-16T06:38:26.539Z,97682.69
2018-07-16T06:40:55.877Z,97688.69
2018-07-16T06:43:24.841Z,97684.89
2018-07-16T06:45:53.665Z,97681.83
2018-07-16T06:48:22.909Z,97683.36
2018-07-16T06:50:52.320Z,97688.88
2018-07-16T06:53:21.115Z,97692.53
2018-07-16T06:55:50.243Z,97683.98
2018-07-16T06:58:19.363Z,97683.74
2018-07-16T07:00:48.266Z,97675.97
2018-07-16T07:03:17.479Z,97678.05
2018-07-16T07:05:46.718Z,97681.91
2018-07-16T07:08:15.646Z,97676.63
2018-07-16T07:10:44.830Z,97675.64
2018-07-16T07:13:13.897Z,97674.31
2018-07-16T07:15:42.855Z,97671.30
2018-07-16T07:18:12.284Z,97664.70
2018-07-16T07:20:41.359Z,97663.58
2018-07-16T07:23:10.360Z,97668.94
2018-07-16T07:25:39.286Z,97670.46
2018-07-16T07:28:09.496Z,97669.61
2018-07-16T07:30:38.499Z,97671.34
2018-07-16T07:33:07.737Z,97669.08
2018-07-16T07:35:37.020Z,97664.45
2018-07-16T07:38:05.932Z,97666.39
2018-07-16T07:40:34.906Z,97666.88
2018-07-16T07:43:03.822Z,97666.03
2018-07-16T07:45:32.769Z,97662.19
2018-07-16T07:48:01.724Z,97670.77
2018-07-16T07:50:30.864Z,97665.75
2018-07-16T07:52:59.973Z,97670.00
2018-07-16T07:55:28.928Z,97664.95
2018-07-16T07:57:58.205Z,97656.14
2018-07-16T08:00:27.286Z,97663.00
2018-07-16T08:02:56.476Z,97663.42
2018-07-16T08:05:25.609Z,97668.19
2018-07-16T08:07:54.887Z,97665.70
2018-07-16T08:10:24.258Z,97657.97
2018-07-16T08:12:53.222Z,97660.23
2018-07-16T08:15:22.443Z,97654.06
2018-07-16T08:17:51.568Z,97650.75
2018-07-16T08:20:20.803Z,97652.97
2018-07-16T08:22:49.707Z,97655.69
2018-07-16T08:25:18.946Z,97655.88
2018-07-16T08:27:47.734Z,97655.07
2018-07-16T08:30:17.070Z,97653.44
2018-07-16T08:32:46.448Z,97657.59
2018-07-16T08:35:15.673Z,97657.27
2018-07-16T08:37:44.809Z,97653.37
2018-07-16T08:40:14.012Z,97661.28
2018-07-16T08:42:43.040Z,97661.42
2018-07-16T08:45:12.336Z,97657.05
2018-07-16T08:47:41.504Z,97652.33
2018-07-16T08:50:10.602Z,97654.89
2018-07-16T08:52:39.614Z,97648.13
2018-07-16T08:55:08.368Z,97657.77
2018-07-16T08:57:37.591Z,97659.85
2018-07-16T09:00:06.779Z,97660.19
2018-07-16T09:02:36.034Z,97662.73
2018-07-16T09:05:05.364Z,97659.84
2018-07-16T09:07:34.770Z,97659.02
2018-07-16T09:10:04.426Z,97659.38
2018-07-16T09:12:33.581Z,97659.53
2018-07-16T09:15:02.529Z,97666.13
2018-07-16T09:17:31.503Z,97658.84
2018-07-16T09:20:00.579Z,97654.28
2018-07-16T09:22:29.815Z,97653.78
2018-07-16T09:24:58.671Z,97657.84
2018-07-16T09:27:27.528Z,97650.77
2018-07-16T09:29:56.742Z,97644.31
2018-07-16T09:32:25.908Z,97650.88
2018-07-16T09:34:55.121Z,97647.43
2018-07-16T09:37:24.373Z,97650.30
2018-07-16T09:39:53.138Z,97649.27
2018-07-16T09:42:22.381Z,97655.92
2018-07-16T09:44:51.994Z,97657.89
2018-07-16T09:47:21.003Z,97653.85
2018-07-16T09:49:50.116Z,97653.62
2018-07-16T09:52:19.126Z,97655.76
2018-07-16T09:54:48.270Z,97652.59
2018-07-16T09:57:17.328Z,97652.47
2018-07-16T09:59:46.413Z,97655.23
2018-07-16T10:02:17.166Z,97650.52
2018-07-16T10:04:47.198Z,97659.31
2018-07-16T10:07:16.407Z,97655.03
2018-07-16T10:09:45.726Z,97663.52
2018-07-16T10:12:14.871Z,97665.19
2018-07-16T10:14:43.814Z,97657.73
2018-07-16T10:17:12.874Z,97661.87
2018-07-16T10:19:41.953Z,97667.08
2018-07-16T10:22:11.022Z,97671.81
2018-07-16T10:24:40.130Z,97661.76
2018-07-16T10:27:09.305Z,97671.07
2018-07-16T10:29:38.157Z,97661.77
2018-07-16T10:32:07.447Z,97661.30
2018-07-16T10:34:36.593Z,97657.41
2018-07-16T10:37:05.737Z,97666.92
2018-07-16T10:39:34.950Z,97660.34
2018-07-16T10:42:04.275Z,97662.84
2018-07-16T10:44:33.083Z,97662.55
2018-07-16T10:47:02.319Z,97654.34
2018-07-16T10:49:31.741Z,97655.20
2018-07-16T10:52:01.039Z,97649.62
2018-07-16T10:54:30.153Z,97651.58
2018-07-16T10:56:59.348Z,97633.47
2018-07-16T10:59:28.528Z,97637.95
2018-07-16T11:01:57.908Z,97638.54
2018-07-16T11:04:26.958Z,97630.87
2018-07-16T11:06:56.001Z,97631.55
2018-07-16T11:09:25.023Z,97633.55
2018-07-16T11:11:54.336Z,97618.23
2018-07-16T11:14:23.617Z,97628.43
2018-07-16T11:16:52.798Z,97619.78
2018-07-16T11:19:21.875Z,97627.62
2018-07-16T11:21:50.823Z,97622.06
2018-07-16T11:24:19.565Z,97619.64
2018-07-16T11:26:48.827Z,97619.20
2018-07-16T11:29:17.586Z,97619.30
2018-07-16T11:31:46.654Z,97622.82
2018-07-16T11:34:15.834Z,97628.76
2018-07-16T11:36:44.885Z,97625.89
2018-07-16T11:39:13.748Z,97631.13
2018-07-16T11:41:42.970Z,97619.90
2018-07-16T11:44:11.926Z,97618.82
2018-07-16T11:46:41.059Z,97616.45
2018-07-16T11:49:10.189Z,97611.91
2018-07-16T11:51:39.403Z,97617.23
2018-07-16T11:54:08.491Z,97619.70
2018-07-16T11:56:37.487Z,97622.70
2018-07-16T11:59:07.132Z,97627.27
2018-07-16T12:01:36.227Z,97607.16
2018-07-16T12:04:05.191Z,97622.34
2018-07-16T12:06:34.364Z,97618.80
2018-07-16T12:09:03.814Z,97620.78
2018-07-16T12:11:32.951Z,97614.81
2018-07-16T12:14:02.214Z,97609.36
2018-07-16T12:16:31.282Z,97595.57
2018-07-16T12:19:00.398Z,97595.00
2018-07-16T12:21:29.671Z,97593.09
2018-07-16T12:23:58.919Z,97591.84
2018-07-16T12:26:27.674Z,97580.25
2018-07-16T12:28:56.727Z,97583.27
2018-07-16T12:31:25.762Z,97575.66
2018-07-16T12:33:54.862Z,97574.11
2018-07-16T12:36:23.956Z,97573.77
2018-07-16T12:38:52.964Z,97575.30
2018-07-16T12:41:21.933Z,97577.03
2018-07-16T12:43:50.840Z,97579.73
2018-07-16T12:46:20.155Z,97576.02
2018-07-16T12:48:49.302Z,97571.16
2018-07-16T12:51:18.432Z,97575.25
2018-07-16T12:53:47.517Z,97571.56
2018-07-16T12:56:16.335Z,97572.58
2018-07-16T12:58:45.505Z,97571.27
2018-07-16T13:01:14.677Z,97575.70
2018-07-16T13:03:43.643Z,97560.67
2018-07-16T13:06:13.011Z,97561.54
2018-07-16T13:08:41.763Z,97556.10
2018-07-16T13:11:11.057Z,97559.95
2018-07-16T13:13:40.139Z,97554.05
2018-07-16T13:16:09.195Z,97561.13
2018-07-16T13:18:38.559Z,97554.78
2018-07-16T13:21:07.691Z,97553.59
2018-07-16T13:23:36.766Z,97551.84
2018-07-16T13:26:05.891Z,97550.10
2018-07-16T13:28:34.730Z,97543.62
2018-07-16T13:31:03.778Z,97541.80
2018-07-16T13:33:32.542Z,97542.97
2018-07-16T13:36:01.887Z,97538.53
2018-07-16T13:38:31.003Z,97535.61
2018-07-16T13:41:00.198Z,97532.44
2018-07-16T13:43:29.077Z,97532.84
2018-07-16T13:45:58.065Z,97534.41
2018-07-16T13:48:26.980Z,97523.50
2018-07-16T13:50:56.207Z,97517.85
2018-07-16T13:53:25.507Z,97512.77
2018-07-16T13:55:54.671Z,97511.02
2018-07-16T13:58:23.790Z,97511.90
2018-07-16T14:00:52.956Z,97522.92
2018-07-16T14:03:22.108Z,97516.42
2018-07-16T14:05:51.343Z,97513.73
2018-07-16T14:08:20.451Z,97515.34
2018-07-16T14:10:49.634Z,97513.78
2018-07-16T14:13:18.382Z,97513.25
2018-07-16T14:15:47.603Z,97512.52
2018-07-16T14:18:16.859Z,97509.70
2018-07-16T14:20:46.063Z,97502.00
2018-07-16T14:23:15.262Z,97499.06
2018-07-16T14:25:44.468Z,97501.83
2018-07-16T14:28:13.677Z,97501.03
2018-07-16T14:30:42.599Z,97496.88
2018-07-16T14:33:11.836Z,97503.61
2018-07-16T14:35:41.105Z,97500.87
2018-07-16T14:38:10.242Z,97500.45
2018-07-16T14:40:39.533Z,97498.39
2018-07-16T14:43:08.761Z,97492.52
2018-07-16T14:45:38.028Z,97487.70
2018-07-16T14:48:07.091Z,97490.78
2018-07-16T14:50:36.339Z,97487.82
2018-07-16T14:53:05.654Z,97485.77
2018-07-16T14:55:34.822Z,97480.84
2018-07-16T14:58:03.702Z,97481.08
2018-07-16T15:00:32.566Z,97482.41
2018-07-16T15:03:01.794Z,97482.11
2018-07-16T15:05:30.988Z,97479.08
2018-07-16T15:08:00.336Z,97480.88
2018-07-16T15:10:29.579Z,97482.16
2018-07-16T15:12:58.755Z,97471.76
2018-07-16T15:15:27.738Z,97469.57
2018-07-16T15:17:56.658Z,97464.05
2018-07-16T15:20:25.504Z,97460.34
2018-07-16T15:22:54.242Z,97459.95
2018-07-16T15:25:23.410Z,97467.59
2018-07-16T15:27:52.358Z,97469.45
2018-07-16T15:30:21.617Z,97466.56
2018-07-16T15:32:50.780Z,97465.91
2018-07-16T15:35:19.782Z,97470.00
2018-07-16T15:37:48.596Z,97470.78
2018-07-16T15:40:17.654Z,97473.09
2018-07-16T15:42:46.595Z,97471.52
2018-07-16T15:45:15.602Z,97470.05
2018-07-16T15:47:44.939Z,97467.38
2018-07-16T15:50:14.170Z,97466.14
2018-07-16T15:52:43.055Z,97460.61
2018-07-16T15:55:12.314Z,97463.41
2018-07-16T15:57:41.130Z,97466.70
2018-07-16T16:00:10.487Z,97461.83
2018-07-16T16:02:39.460Z,97464.73
2018-07-16T16:05:08.881Z,97467.51
2018-07-16T16:07:37.739Z,97468.28
2018-07-16T16:10:07.086Z,97472.07
2018-07-16T16:12:36.251Z,97475.66
2018-07-16T16:15:05.588Z,97474.10
2018-07-16T16:17:34.521Z,97464.84
2018-07-16T16:20:03.871Z,97471.34
2018-07-16T16:22:33.230Z,97469.48
2018-07-16T16:25:02.354Z,97477.63
2018-07-16T16:27:31.285Z,97478.52
2018-07-16T16:30:00.448Z,97484.50
2018-07-16T16:32:29.296Z,97482.32
2018-07-16T16:34:58.020Z,97484.42
2018-07-16T16:37:27.202Z,97486.81
2018-07-16T16:39:55.976Z,97488.20
2018-07-16T16:42:25.007Z,97483.69
2018-07-16T16:44:54.091Z,97487.67
2018-07-16T16:47:23.292Z,97488.89
2018-07-16T16:49:52.335Z,97477.56
2018-07-16T16:52:21.786Z,97477.55
2018-07-16T16:54:51.025Z,97470.52
2018-07-16T16:57:20.085Z,97480.16
2018-07-16T16:59:48.782Z,97465.80
2018-07-16T17:02:17.891Z,97471.30
2018-07-16T17:04:46.795Z,97470.77
2018-07-16T17:07:15.977Z,97472.86
2018-07-16T17:09:45.539Z,97465.08
2018-07-16T17:12:14.794Z,97472.56
2018-07-16T17:14:43.926Z,97469.80
2018-07-16T17:17:12.814Z,97481.09
2018-07-16T17:19:41.598Z,97479.96
2018-07-16T17:22:10.869Z,97472.57
2018-07-16T17:24:39.877Z,97479.84
2018-07-16T17:27:09.147Z,97473.95
2018-07-16T17:29:38.514Z,97475.64
2018-07-16T17:32:07.671Z,97484.56
2018-07-16T17:34:36.912Z,97485.52
2018-07-16T17:37:06.096Z,97486.03
2018-07-16T17:39:35.366Z,97486.33
2018-07-16T17:42:04.435Z,97483.59
2018-07-16T17:44:33.466Z,97490.41
2018-07-16T17:47:02.604Z,97499.65
2018-07-16T17:49:31.897Z,97498.22
2018-07-16T17:52:00.770Z,97497.14
2018-07-16T17:54:29.702Z,97496.84
2018-07-16T17:56:58.939Z,97499.63
2018-07-16T17:59:28.028Z,97498.64
2018-07-16T18:01:57.276Z,97503.16
2018-07-16T18:04:26.363Z,97508.56
2018-07-16T18:06:55.433Z,97517.13
2018-07-16T18:09:24.510Z,97509.59
2018-07-16T18:11:53.635Z,97511.31
2018-07-16T18:14:22.670Z,97509.51
2018-07-16T18:16:51.866Z,97507.88
2018-07-16T18:19:21.003Z,97506.27
2018-07-16T18:21:50.191Z,97503.84
2018-07-16T18:24:19.072Z,97518.85
2018-07-16T18:26:48.283Z,97518.45
2018-07-16T18:29:17.482Z,97519.73
2018-07-16T18:31:46.729Z,97522.64
2018-07-16T18:34:15.951Z,97516.32
2018-07-16T18:36:45.252Z,97515.83
2018-07-16T18:39:14.394Z,97517.45
2018-07-16T18:41:43.446Z,97515.77
2018-07-16T18:44:12.526Z,97515.44
2018-07-16T18:46:41.620Z,97520.44
2018-07-16T18:49:10.830Z,97514.67
2018-07-16T18:51:39.964Z,97522.59
2018-07-16T18:54:09.087Z,97526.76
2018-07-16T18:56:38.200Z,97523.56
2018-07-16T18:59:07.434Z,97519.27
2018-07-16T19:01:36.530Z,97515.30
2018-07-16T19:04:05.943Z,97512.19
2018-07-16T19:06:35.005Z,97507.88
2018-07-16T19:09:04.383Z,97511.97
2018-07-16T19:11:33.543Z,97504.47
2018-07-16T19:14:02.616Z,97501.63
2018-07-16T19:16:31.766Z,97494.74
2018-07-16T19:19:01.774Z,97495.12
2018-07-16T19:21:31.251Z,97492.47
2018-07-16T19:24:00.568Z,97498.34
2018-07-16T19:26:29.395Z,97496.55
2018-07-16T19:28:58.543Z,97494.31
2018-07-16T19:31:27.816Z,97488.47
2018-07-16T19:33:56.939Z,97490.20
2018-07-16T19:36:26.637Z,97492.55
2018-07-16T19:38:55.906Z,97498.01
2018-07-16T19:41:25.066Z,97498.70
2018-07-16T19:43:55.874Z,97498.77
2018-07-16T19:46:25.044Z,97506.52
2018-07-16T19:48:54.200Z,97500.39
2018-07-16T19:51:23.502Z,97492.75
2018-07-16T19:53:52.615Z,97492.66
2018-07-16T19:56:21.836Z,97485.98
2018-07-16T19:58:51.160Z,97495.91
2018-07-16T20:01:20.383Z,97496.02
2018-07-16T20:03:49.256Z,97494.98
2018-07-16T20:06:18.554Z,97498.56
2018-07-16T20:08:47.787Z,97501.56
2018-07-16T20:11:16.567Z,97499.22
2018-07-16T20:13:45.786Z,97493.41
2018-07-16T20:16:15.043Z,97499.42
2018-07-16T20:18:44.242Z,97483.55
2018-07-16T20:21:13.529Z,97478.20
2018-07-16T20:23:42.300Z,97477.27
2018-07-16T20:26:11.876Z,97470.53
2018-07-16T20:28:41.138Z,97469.53
2018-07-16T20:31:10.420Z,97455.91
2018-07-16T20:33:39.941Z,97464.47
2018-07-16T20:36:09.099Z,97464.80
2018-07-16T20:38:38.374Z,97465.36
2018-07-16T20:41:07.246Z,97465.52
2018-07-16T20:43:36.405Z,97462.34
2018-07-16T20:46:05.390Z,97469.46
2018-07-16T20:48:34.374Z,97473.34
2018-07-16T20:51:03.737Z,97472.48
2018-07-16T20:53:33.004Z,97478.85
2018-07-16T20:56:02.053Z,97473.75
2018-07-16T20:58:30.994Z,97471.48
2018-07-16T21:01:00.344Z,97466.42
2018-07-16T21:03:29.315Z,97459.34
2018-07-16T21:05:58.545Z,97451.86
2018-07-16T21:08:27.736Z,97448.02
2018-07-16T21:10:56.700Z,97449.88
2018-07-16T21:13:25.495Z,97455.35
2018-07-16T21:15:54.477Z,97454.88
2018-07-16T21:18:23.671Z,97451.51
2018-07-16T21:20:52.725Z,97443.52
2018-07-16T21:23:21.898Z,97445.59
2018-07-16T21:25:50.691Z,97438.73
2018-07-16T21:28:19.865Z,97427.77
2018-07-16T21:30:48.867Z,97417.85
2018-07-16T21:33:17.845Z,97423.28
2018-07-16T21:35:46.994Z,97419.80
2018-07-16T21:38:16.053Z,97415.53
2018-07-16T21:40:45.447Z,97423.42
2018-07-16T21:43:14.178Z,97422.31
2018-07-16T21:45:43.494Z,97427.35
2018-07-16T21:48:12.641Z,97423.02
2018-07-16T21:50:41.966Z,97426.71
2018-07-16T21:53:11.298Z,97417.44
2018-07-16T21:55:40.434Z,97433.00
2018-07-16T21:58:09.521Z,97426.16
2018-07-16T22:00:38.596Z,97430.58
2018-07-16T22:03:07.765Z,97443.84
2018-07-16T22:05:36.663Z,97443.45
2018-07-16T22:08:05.812Z,97432.12
2018-07-16T22:10:34.915Z,97428.70
2018-07-16T22:13:04.240Z,97432.67
2018-07-16T22:15:33.264Z,97429.75
2018-07-16T22:18:02.447Z,97430.50
2018-07-16T22:20:31.403Z,97420.89
2018-07-16T22:23:00.360Z,97421.59
2018-07-16T22:25:29.274Z,97425.22
2018-07-16T22:27:58.137Z,97416.00
2018-07-16T22:30:27.256Z,97406.41
2018-07-16T22:32:56.550Z,97405.64
2018-07-16T22:35:25.585Z,97410.30
2018-07-16T22:37:54.894Z,97408.42
2018-07-16T22:40:23.648Z,97404.20
2018-07-16T22:42:52.664Z,97409.48
2018-07-16T22:45:21.779Z,97401.41
2018-07-16T22:47:51.034Z,97404.92
2018-07-16T22:50:20.137Z,97404.42
2018-07-16T22:52:49.277Z,97412.14
2018-07-16T22:55:18.014Z,97407.33
2018-07-16T22:57:47.018Z,97408.05
2018-07-16T23:00:16.162Z,97406.66
2018-07-16T23:02:45.590Z,97414.66
2018-07-16T23:05:14.779Z,97411.47
2018-07-16T23:07:43.987Z,97413.52
2018-07-16T23:10:13.161Z,97405.06
2018-07-16T23:12:42.139Z,97402.48
2018-07-16T23:15:11.255Z,97411.13
2018-07-16T23:17:40.406Z,97407.88
2018-07-16T23:20:09.488Z,97417.73
2018-07-16T23:22:48.601Z,97420.31
2018-07-16T23:25:17.798Z,97416.58
2018-07-16T23:27:47.158Z,97411.17
2018-07-16T23:30:16.481Z,97403.73
2018-07-16T23:32:45.758Z,97401.58
2018-07-16T23:35:15.153Z,97404.59
2018-07-16T23:37:44.407Z,97404.59
2018-07-16T23:40:13.596Z,97403.63
2018-07-16T23:42:42.746Z,97399.86
2018-07-16T23:45:12.004Z,97395.80
2018-07-16T23:47:40.948Z,97389.02
2018-07-16T23:50:10.246Z,97385.00
2018-07-16T23:52:39.011Z,97382.20
2018-07-16T23:55:08.330Z,97375.71
2018-07-16T23:57:37.464Z,97375.65
